Time;durP1;ratioP1;P1;durP2;ratioP2;P2;SDS_P1;SDS_P2;PMS_P1;PMS_P2;Temp;Humidity;BMP_temperature;BMP_pressure;BME280_temperature;BME280_humidity;BME280_pressure;Samples;Min_cycle;Max_cycle;Signal;HPM_P1;HPM_P2
2023/06/10 00:00:14;;;;;;;9.63;6.20;;;16.30;68.90;;;;;;6280638;28;20314;-81
2023/06/10 00:03:17;;;;;;;12.73;6.17;;;16.20;69.00;;;;;;6264839;28;20727;-81
2023/06/10 00:06:24;;;;;;;6.10;5.50;;;16.20;69.30;;;;;;6282412;28;20237;-82
2023/06/10 00:09:28;;;;;;;6.47;5.57;;;16.20;69.30;;;;;;6272666;28;20234;-81
2023/06/10 00:12:36;;;;;;;10.03;6.63;;;16.20;69.40;;;;;;6262879;28;20884;-79
2023/06/10 00:15:41;;;;;;;6.47;5.73;;;16.10;69.60;;;;;;6280149;28;20229;-82
2023/06/10 00:18:44;;;;;;;6.47;5.87;;;16.00;69.70;;;;;;6276589;28;20313;-81
2023/06/10 00:21:47;;;;;;;10.27;6.23;;;16.10;69.70;;;;;;6282121;28;20735;-84
2023/06/10 00:24:52;;;;;;;8.00;5.90;;;16.00;69.90;;;;;;6276885;28;20234;-81
2023/06/10 00:27:55;;;;;;;6.80;5.80;;;16.00;70.00;;;;;;6264596;28;20312;-82
2023/06/10 00:30:59;;;;;;;10.83;6.03;;;16.00;70.00;;;;;;6283775;28;20332;-82
2023/06/10 00:34:02;;;;;;;8.37;5.70;;;16.00;70.00;;;;;;6274659;28;20880;-79
2023/06/10 00:37:06;;;;;;;7.87;6.20;;;16.00;70.00;;;;;;6268144;28;20260;-82
2023/06/10 00:40:10;;;;;;;7.87;5.97;;;16.00;70.20;;;;;;6265375;28;20971;-81
2023/06/10 00:43:13;;;;;;;6.70;6.07;;;16.00;70.30;;;;;;6281218;28;20238;-80
2023/06/10 00:46:18;;;;;;;9.23;6.77;;;15.90;70.30;;;;;;6263225;28;20241;-82
2023/06/10 00:49:21;;;;;;;7.67;6.10;;;15.80;70.50;;;;;;6272490;28;20327;-82
2023/06/10 00:52:29;;;;;;;9.53;5.93;;;15.80;70.70;;;;;;6293376;28;20276;-81
2023/06/10 00:55:33;;;;;;;7.10;6.30;;;15.80;70.80;;;;;;6269858;28;20260;-81
2023/06/10 00:58:37;;;;;;;13.30;6.50;;;15.80;70.80;;;;;;6271540;28;20325;-82
2023/06/10 01:01:43;;;;;;;8.07;5.90;;;15.80;70.90;;;;;;6280666;28;20233;-81
2023/06/10 01:04:48;;;;;;;9.67;6.20;;;15.80;70.90;;;;;;6268112;28;20237;-81
2023/06/10 01:07:57;;;;;;;11.20;6.07;;;15.60;71.10;;;;;;6276208;28;20237;-81
2023/06/10 01:11:03;;;;;;;8.20;6.10;;;15.60;71.10;;;;;;6268995;28;20316;-82
2023/06/10 01:14:07;;;;;;;6.57;5.90;;;15.60;71.00;;;;;;6273133;28;20632;-82
2023/06/10 01:17:12;;;;;;;7.63;5.67;;;15.60;71.10;;;;;;6264630;28;20843;-81
2023/06/10 01:20:17;;;;;;;8.37;6.10;;;15.60;71.20;;;;;;6263466;28;20230;-80
2023/06/10 01:23:21;;;;;;;8.33;5.80;;;15.60;71.20;;;;;;6274187;28;20245;-82
2023/06/10 01:26:29;;;;;;;8.13;6.37;;;15.60;71.20;;;;;;6277741;28;20331;-83
2023/06/10 01:29:38;;;;;;;10.83;6.27;;;15.50;71.30;;;;;;6273286;28;20227;-79
2023/06/10 01:32:45;;;;;;;7.27;6.00;;;15.50;71.40;;;;;;6281511;28;20284;-81
2023/06/10 01:35:49;;;;;;;6.50;5.87;;;15.40;71.60;;;;;;6291895;28;20963;-80
2023/06/10 01:38:55;;;;;;;7.03;6.30;;;15.40;71.60;;;;;;6275601;28;20752;-80
2023/06/10 01:41:59;;;;;;;7.63;6.17;;;15.40;71.60;;;;;;6266305;28;20705;-81
2023/06/10 01:45:02;;;;;;;7.33;6.20;;;15.40;71.70;;;;;;6269459;28;20237;-80
2023/06/10 01:48:06;;;;;;;12.37;6.77;;;15.40;71.80;;;;;;6271892;28;20237;-79
2023/06/10 01:51:09;;;;;;;6.97;5.50;;;15.30;72.00;;;;;;6290381;28;20236;-82
2023/06/10 01:54:13;;;;;;;8.20;6.23;;;15.30;71.90;;;;;;6281589;28;20351;-81
2023/06/10 01:57:17;;;;;;;6.87;6.10;;;15.20;72.00;;;;;;6271531;28;20795;-81
2023/06/10 02:00:20;;;;;;;11.87;6.30;;;15.20;72.00;;;;;;6278164;28;20426;-82
2023/06/10 02:03:24;;;;;;;8.63;6.73;;;15.20;72.10;;;;;;6262032;28;20844;-82
2023/06/10 02:06:27;;;;;;;9.80;6.63;;;15.20;72.20;;;;;;6275074;28;20252;-83
2023/06/10 02:09:34;;;;;;;6.63;6.13;;;15.10;72.40;;;;;;6261976;28;20229;-81
2023/06/10 02:12:37;;;;;;;7.57;6.10;;;15.10;72.30;;;;;;6270449;28;20241;-82
2023/06/10 02:15:40;;;;;;;10.47;6.27;;;15.00;72.40;;;;;;6269576;28;20316;-83
2023/06/10 02:18:44;;;;;;;7.00;6.30;;;15.00;72.50;;;;;;6268753;28;20984;-82
2023/06/10 02:21:47;;;;;;;7.70;6.17;;;15.00;72.50;;;;;;6272411;28;20242;-82
2023/06/10 02:24:51;;;;;;;6.60;5.90;;;15.00;72.60;;;;;;6274784;28;20229;-81
2023/06/10 02:27:54;;;;;;;6.23;5.63;;;15.00;72.70;;;;;;6271617;28;20711;-79
2023/06/10 02:30:58;;;;;;;10.03;6.33;;;15.00;72.50;;;;;;6279965;28;20245;-82
2023/06/10 02:34:02;;;;;;;10.67;5.70;;;15.00;72.30;;;;;;6277768;28;20237;-80
2023/06/10 02:37:06;;;;;;;12.27;6.90;;;15.00;72.50;;;;;;6270066;28;20226;-82
2023/06/10 02:40:12;;;;;;;9.70;6.07;;;15.00;72.70;;;;;;6274684;28;20263;-81
2023/06/10 02:43:15;;;;;;;7.70;6.93;;;14.90;72.90;;;;;;6275060;28;20245;-84
2023/06/10 02:46:18;;;;;;;10.63;6.60;;;14.90;72.90;;;;;;6279618;28;20240;-83
2023/06/10 02:49:21;;;;;;;9.03;6.57;;;14.90;72.90;;;;;;6292656;28;20336;-80
2023/06/10 02:52:25;;;;;;;6.90;6.40;;;14.90;73.00;;;;;;6276086;28;20271;-81
2023/06/10 02:55:30;;;;;;;9.73;7.37;;;14.90;72.90;;;;;;6264258;28;20291;-83
2023/06/10 02:58:33;;;;;;;10.47;7.03;;;14.90;72.90;;;;;;6292921;28;20241;-83
2023/06/10 03:01:36;;;;;;;8.07;6.70;;;14.90;72.80;;;;;;6275254;28;20246;-81
2023/06/10 03:04:40;;;;;;;9.30;6.30;;;14.90;73.00;;;;;;6270049;28;20242;-81
2023/06/10 03:07:46;;;;;;;6.97;6.37;;;14.90;73.00;;;;;;6272568;28;20234;-80
2023/06/10 03:10:50;;;;;;;8.63;6.83;;;14.80;73.10;;;;;;6278882;28;20587;-81
2023/06/10 03:13:55;;;;;;;7.80;6.43;;;14.80;73.20;;;;;;6270312;28;20246;-82
2023/06/10 03:16:59;;;;;;;9.57;6.30;;;14.80;73.10;;;;;;6265288;28;20225;-82
2023/06/10 03:20:02;;;;;;;10.00;7.07;;;14.80;73.30;;;;;;6263797;28;20233;-80
2023/06/10 03:23:10;;;;;;;12.40;7.17;;;14.80;73.20;;;;;;6268603;28;20234;-82
2023/06/10 03:26:15;;;;;;;9.73;7.37;;;14.80;73.30;;;;;;6283261;28;20364;-80
2023/06/10 03:29:19;;;;;;;9.47;6.27;;;14.80;73.20;;;;;;6283762;28;20241;-82
2023/06/10 03:32:22;;;;;;;7.23;6.53;;;14.80;73.20;;;;;;6258712;28;20753;-80
2023/06/10 03:35:25;;;;;;;8.13;6.67;;;14.80;73.20;;;;;;6264253;28;20813;-80
2023/06/10 03:38:29;;;;;;;6.73;6.03;;;14.80;73.20;;;;;;6264022;28;20304;-79
2023/06/10 03:41:33;;;;;;;11.10;7.37;;;14.80;73.10;;;;;;6271322;28;20780;-80
2023/06/10 03:44:38;;;;;;;9.70;7.70;;;14.80;73.20;;;;;;6268991;28;20308;-80
2023/06/10 03:47:41;;;;;;;11.43;6.77;;;14.90;73.20;;;;;;6265696;28;20238;-82
2023/06/10 03:50:46;;;;;;;10.93;7.00;;;14.80;73.20;;;;;;6263244;28;20285;-79
2023/06/10 03:53:49;;;;;;;7.37;6.37;;;14.90;73.20;;;;;;6268116;28;20241;-82
2023/06/10 03:56:54;;;;;;;8.83;7.30;;;14.90;73.20;;;;;;6264757;28;20722;-81
2023/06/10 03:59:57;;;;;;;9.57;7.57;;;14.90;73.00;;;;;;6268999;28;20234;-80
2023/06/10 04:03:01;;;;;;;8.60;7.13;;;14.90;73.20;;;;;;6270949;28;20863;-79
2023/06/10 04:06:04;;;;;;;10.43;6.67;;;14.90;73.10;;;;;;6272317;28;20238;-81
2023/06/10 04:09:09;;;;;;;10.60;6.87;;;14.90;73.10;;;;;;6263973;28;20253;-80
2023/06/10 04:12:14;;;;;;;8.83;7.03;;;14.90;73.10;;;;;;6289274;28;20259;-81
2023/06/10 04:15:18;;;;;;;9.17;7.20;;;14.90;73.00;;;;;;6274970;28;20378;-82
2023/06/10 04:18:21;;;;;;;10.03;7.33;;;15.00;72.90;;;;;;6275020;28;20234;-80
2023/06/10 04:21:24;;;;;;;9.97;6.97;;;15.00;72.80;;;;;;6278212;28;20257;-77
2023/06/10 04:24:27;;;;;;;8.87;7.03;;;15.00;72.70;;;;;;6266029;28;20256;-75
2023/06/10 04:27:32;;;;;;;8.17;7.30;;;15.10;72.60;;;;;;6273694;28;20245;-78
2023/06/10 04:30:35;;;;;;;8.27;6.53;;;15.20;72.50;;;;;;6276428;28;20245;-75
2023/06/10 04:33:38;;;;;;;8.27;7.47;;;15.20;72.20;;;;;;6263207;28;20902;-76
2023/06/10 04:36:42;;;;;;;9.93;6.97;;;15.20;72.20;;;;;;6272091;28;20240;-77
2023/06/10 04:39:45;;;;;;;10.27;7.27;;;15.30;72.10;;;;;;6256245;28;20709;-75
2023/06/10 04:42:50;;;;;;;7.33;6.67;;;15.30;72.00;;;;;;6268649;28;20254;-78
2023/06/10 04:45:53;;;;;;;10.80;7.30;;;15.30;72.10;;;;;;6262682;28;20229;-77
2023/06/10 04:48:56;;;;;;;7.43;6.73;;;15.30;72.10;;;;;;6266720;28;20242;-78
2023/06/10 04:51:59;;;;;;;11.17;7.83;;;15.30;72.10;;;;;;6272438;28;20712;-77
2023/06/10 04:55:03;;;;;;;7.93;7.13;;;15.40;71.90;;;;;;6266401;28;20234;-77
2023/06/10 04:58:07;;;;;;;12.47;7.70;;;15.40;71.90;;;;;;6278761;28;20292;-77
2023/06/10 05:01:10;;;;;;;10.50;7.47;;;15.50;71.70;;;;;;6278912;28;20251;-76
2023/06/10 05:04:13;;;;;;;8.90;7.10;;;15.50;71.70;;;;;;6277100;28;20275;-76
2023/06/10 05:07:17;;;;;;;8.20;7.20;;;15.60;71.70;;;;;;6269857;28;20242;-78
2023/06/10 05:10:20;;;;;;;9.60;7.67;;;15.80;71.40;;;;;;6262854;28;20285;-76
2023/06/10 05:13:24;;;;;;;7.90;7.10;;;16.00;70.70;;;;;;6270593;28;20249;-76
2023/06/10 05:16:27;;;;;;;8.27;6.90;;;16.10;70.70;;;;;;6276181;28;20786;-78
2023/06/10 05:19:30;;;;;;;9.17;6.63;;;16.40;69.80;;;;;;6277216;28;20237;-78
2023/06/10 05:22:34;;;;;;;9.43;8.03;;;16.50;69.50;;;;;;6274364;28;20242;-77
2023/06/10 05:25:37;;;;;;;7.87;7.17;;;16.60;69.30;;;;;;6273886;28;20238;-75
2023/06/10 05:28:41;;;;;;;9.97;7.03;;;16.70;69.20;;;;;;6273476;28;20264;-78
2023/06/10 05:31:45;;;;;;;10.90;7.80;;;16.80;69.40;;;;;;6266136;28;20307;-75
2023/06/10 05:34:48;;;;;;;8.33;7.47;;;16.90;69.20;;;;;;6253028;28;20233;-75
2023/06/10 05:37:51;;;;;;;7.57;6.87;;;17.00;69.20;;;;;;6273772;28;20234;-74
2023/06/10 05:40:56;;;;;;;9.07;7.30;;;17.20;69.00;;;;;;6266432;28;20230;-75
2023/06/10 05:44:01;;;;;;;11.83;7.50;;;17.60;68.30;;;;;;6268832;28;20250;-76
2023/06/10 05:47:05;;;;;;;11.63;7.67;;;18.10;66.70;;;;;;6264603;28;20319;-75
2023/06/10 05:50:09;;;;;;;8.77;7.13;;;18.60;66.00;;;;;;6278226;28;20742;-75
2023/06/10 05:53:14;;;;;;;7.83;7.10;;;18.90;65.00;;;;;;6266937;28;20248;-74
2023/06/10 05:56:18;;;;;;;7.63;6.83;;;19.10;64.70;;;;;;6261795;28;20226;-76
2023/06/10 05:59:22;;;;;;;7.90;7.00;;;19.40;64.20;;;;;;6256390;28;20933;-77
2023/06/10 06:02:25;;;;;;;10.17;7.30;;;19.50;63.70;;;;;;6264785;28;20238;-76
2023/06/10 06:05:34;;;;;;;11.47;7.80;;;19.70;63.20;;;;;;6275600;28;20248;-76
2023/06/10 06:08:37;;;;;;;11.37;7.37;;;19.70;62.50;;;;;;6248646;28;20245;-75
2023/06/10 06:11:40;;;;;;;7.90;7.20;;;19.80;62.50;;;;;;6292278;28;20273;-77
2023/06/10 06:14:45;;;;;;;12.07;7.30;;;19.90;62.50;;;;;;6260195;28;20280;-77
2023/06/10 06:17:48;;;;;;;7.80;7.20;;;20.00;62.20;;;;;;6270953;28;20693;-74
2023/06/10 06:20:51;;;;;;;7.63;7.07;;;20.20;61.80;;;;;;6256874;28;20230;-78
2023/06/10 06:23:54;;;;;;;11.33;7.73;;;20.30;61.40;;;;;;6259056;28;20316;-77
2023/06/10 06:26:57;;;;;;;8.90;7.20;;;20.20;61.40;;;;;;6269756;28;20248;-76
2023/06/10 06:30:02;;;;;;;8.60;7.03;;;20.30;61.50;;;;;;6275322;28;20309;-75
2023/06/10 06:33:06;;;;;;;9.80;7.47;;;20.40;61.00;;;;;;6265759;28;20233;-78
2023/06/10 06:36:09;;;;;;;9.23;8.10;;;20.30;61.10;;;;;;6266716;28;20233;-79
2023/06/10 06:39:15;;;;;;;8.13;7.33;;;20.60;61.40;;;;;;6271834;28;20766;-77
2023/06/10 06:42:18;;;;;;;7.83;7.23;;;21.00;60.10;;;;;;6272115;28;20311;-80
2023/06/10 06:45:23;;;;;;;10.90;7.30;;;21.30;59.60;;;;;;6276462;28;20229;-76
2023/06/10 06:48:28;;;;;;;9.83;7.43;;;21.70;59.00;;;;;;6280971;28;20241;-77
2023/06/10 06:51:33;;;;;;;8.67;7.60;;;22.20;58.00;;;;;;6271486;28;20622;-79
2023/06/10 06:54:36;;;;;;;13.57;7.97;;;22.30;57.10;;;;;;6273585;28;20237;-78
2023/06/10 06:57:39;;;;;;;8.53;7.73;;;22.30;57.20;;;;;;6305664;28;20316;-80
2023/06/10 07:00:44;;;;;;;10.57;7.87;;;22.10;57.30;;;;;;6247060;28;20323;-79
2023/06/10 07:03:47;;;;;;;7.83;7.23;;;21.90;57.70;;;;;;6267601;28;20233;-79
2023/06/10 07:06:50;;;;;;;12.60;7.53;;;21.70;58.20;;;;;;6277140;28;20859;-78
2023/06/10 07:09:53;;;;;;;12.00;7.50;;;21.60;58.40;;;;;;6268684;28;20888;-79
2023/06/10 07:12:56;;;;;;;8.10;7.27;;;21.90;58.30;;;;;;6263648;28;20242;-82
2023/06/10 07:16:01;;;;;;;8.73;7.30;;;22.50;57.30;;;;;;6262298;28;20237;-80
2023/06/10 07:19:04;;;;;;;9.83;7.90;;;23.10;56.20;;;;;;6269065;28;20314;-77
2023/06/10 07:22:08;;;;;;;8.90;7.93;;;23.40;55.90;;;;;;6271368;28;20234;-79
2023/06/10 07:25:11;;;;;;;9.57;8.30;;;23.50;55.30;;;;;;6265521;28;20254;-80
2023/06/10 07:28:15;;;;;;;8.60;7.60;;;23.50;55.60;;;;;;6269723;28;20241;-78
2023/06/10 07:31:19;;;;;;;8.17;7.27;;;23.50;55.00;;;;;;6266351;28;20367;-79
2023/06/10 07:34:22;;;;;;;9.00;7.97;;;23.60;55.20;;;;;;6268176;28;20336;-80
2023/06/10 07:37:26;;;;;;;9.27;7.50;;;23.80;55.30;;;;;;6277300;28;20244;-81
2023/06/10 07:40:31;;;;;;;8.10;7.40;;;23.90;54.90;;;;;;6268491;28;20387;-80
2023/06/10 07:43:38;;;;;;;11.10;7.93;;;24.00;54.80;;;;;;6275806;28;20254;-81
2023/06/10 07:46:42;;;;;;;9.27;8.47;;;23.90;54.70;;;;;;6266935;28;20316;-82
2023/06/10 07:49:45;;;;;;;8.80;7.90;;;23.60;54.90;;;;;;6265705;28;20223;-79
2023/06/10 07:52:48;;;;;;;9.30;8.30;;;23.40;55.50;;;;;;6277265;28;20242;-82
2023/06/10 07:55:52;;;;;;;8.67;7.90;;;23.20;55.90;;;;;;6279524;28;20237;-76
2023/06/10 07:58:55;;;;;;;9.37;7.57;;;23.10;56.10;;;;;;6267702;28;20237;-79
2023/06/10 08:01:59;;;;;;;8.33;7.33;;;23.00;56.40;;;;;;6278569;28;20940;-78
2023/06/10 08:05:02;;;;;;;15.83;8.10;;;22.90;56.90;;;;;;6258732;28;20238;-79
2023/06/10 08:08:05;;;;;;;8.67;7.83;;;22.80;56.90;;;;;;6276512;28;20604;-77
2023/06/10 08:11:09;;;;;;;9.27;8.30;;;23.00;57.20;;;;;;6265313;28;20230;-77
2023/06/10 08:14:12;;;;;;;9.03;8.23;;;23.40;56.80;;;;;;6265128;28;20226;-79
2023/06/10 08:17:16;;;;;;;8.47;7.73;;;23.80;55.80;;;;;;6268869;28;20235;-78
2023/06/10 08:20:19;;;;;;;8.57;7.77;;;23.90;55.70;;;;;;6272166;28;20237;-78
2023/06/10 08:23:23;;;;;;;8.73;8.00;;;24.20;54.70;;;;;;6261369;28;20299;-79
2023/06/10 08:26:26;;;;;;;9.10;8.33;;;24.30;54.20;;;;;;6272093;28;20487;-81
2023/06/10 08:29:31;;;;;;;10.27;8.23;;;24.30;54.30;;;;;;6271431;28;20237;-81
2023/06/10 08:32:35;;;;;;;8.73;7.90;;;24.40;54.20;;;;;;6267479;28;20700;-80
2023/06/10 08:35:38;;;;;;;8.73;7.87;;;24.40;54.40;;;;;;6271315;28;20254;-78
2023/06/10 08:38:41;;;;;;;13.43;8.60;;;24.40;54.50;;;;;;6280257;28;20363;-78
2023/06/10 08:42:01;;;;;;;9.00;8.07;;;24.40;55.00;;;;;;6243624;28;20379;-79
2023/06/10 08:45:08;;;;;;;12.53;8.13;;;24.50;54.30;;;;;;6270829;28;20302;-79
2023/06/10 08:48:15;;;;;;;20.00;9.20;;;24.80;54.10;;;;;;6266238;28;20237;-80
2023/06/10 08:51:19;;;;;;;9.63;7.57;;;25.30;52.80;;;;;;6277355;28;20246;-81
2023/06/10 08:54:25;;;;;;;9.17;8.30;;;25.70;52.50;;;;;;6264206;28;20260;-79
2023/06/10 08:57:30;;;;;;;8.77;8.00;;;26.20;52.20;;;;;;6275803;28;20238;-80
2023/06/10 09:00:34;;;;;;;8.50;7.90;;;26.70;51.60;;;;;;6264537;28;20250;-82
2023/06/10 09:03:40;;;;;;;9.03;8.37;;;27.20;50.90;;;;;;6263240;28;20241;-78
2023/06/10 09:06:44;;;;;;;8.70;7.50;;;27.40;50.60;;;;;;6264708;28;20230;-79
2023/06/10 09:09:47;;;;;;;14.67;8.30;;;27.50;50.00;;;;;;6275719;28;20305;-80
2023/06/10 09:12:50;;;;;;;8.57;7.93;;;27.90;49.70;;;;;;6263394;28;20331;-79
2023/06/10 09:15:56;;;;;;;10.63;7.83;;;27.90;49.40;;;;;;6276494;28;20851;-81
2023/06/10 09:19:00;;;;;;;12.60;7.63;;;27.70;50.10;;;;;;6261438;28;20234;-79
2023/06/10 09:22:04;;;;;;;11.80;8.13;;;27.50;50.00;;;;;;6270430;28;20503;-78
2023/06/10 09:25:09;;;;;;;11.50;8.80;;;27.40;50.00;;;;;;6270603;28;20633;-78
2023/06/10 09:28:17;;;;;;;8.77;7.97;;;27.20;50.10;;;;;;6255235;28;20245;-78
2023/06/10 09:31:21;;;;;;;10.53;7.70;;;26.90;50.60;;;;;;6270160;28;20261;-78
2023/06/10 09:34:27;;;;;;;9.80;8.27;;;26.60;51.10;;;;;;6265982;28;20270;-79
2023/06/10 09:37:30;;;;;;;8.00;7.33;;;26.40;51.50;;;;;;6276325;28;20317;-79
2023/06/10 09:40:33;;;;;;;8.10;7.40;;;26.20;51.50;;;;;;6277356;28;20234;-80
2023/06/10 09:43:41;;;;;;;8.93;7.77;;;25.80;52.30;;;;;;6269237;28;20867;-79
2023/06/10 09:46:47;;;;;;;12.23;8.30;;;25.60;51.90;;;;;;6270109;28;20263;-80
2023/06/10 09:49:53;;;;;;;11.53;7.77;;;25.50;52.30;;;;;;6262604;28;20241;-79
2023/06/10 09:52:56;;;;;;;12.47;7.53;;;25.30;52.60;;;;;;6271606;28;20279;-78
2023/06/10 09:56:00;;;;;;;9.90;7.67;;;25.10;52.80;;;;;;6273044;28;20268;-78
2023/06/10 09:59:03;;;;;;;9.70;7.70;;;25.00;52.90;;;;;;6277926;28;20232;-78
2023/06/10 10:02:07;;;;;;;8.73;7.90;;;24.90;52.80;;;;;;6257359;28;20233;-77
2023/06/10 10:05:16;;;;;;;13.23;7.83;;;24.70;53.00;;;;;;6264722;28;20307;-79
2023/06/10 10:08:19;;;;;;;8.53;7.83;;;24.50;53.20;;;;;;6267776;28;20434;-76
2023/06/10 10:11:25;;;;;;;10.13;8.43;;;24.40;53.40;;;;;;6262612;28;20230;-78
2023/06/10 10:14:31;;;;;;;8.90;8.00;;;24.20;53.40;;;;;;6260829;28;20789;-79
2023/06/10 10:17:36;;;;;;;8.23;7.53;;;24.20;53.30;;;;;;6265901;28;20264;-81
2023/06/10 10:20:48;;;;;;;8.73;7.87;;;24.10;53.40;;;;;;6261187;28;20291;-80
2023/06/10 10:23:56;;;;;;;10.57;8.33;;;24.10;53.40;;;;;;6277409;28;20245;-80
2023/06/10 10:27:02;;;;;;;7.77;7.13;;;24.20;53.60;;;;;;6268402;28;20237;-80
2023/06/10 10:30:10;;;;;;;8.70;7.43;;;24.20;52.80;;;;;;6260352;28;20312;-80
2023/06/10 10:33:17;;;;;;;8.27;7.53;;;24.30;52.50;;;;;;6262428;28;20648;-80
2023/06/10 10:36:22;;;;;;;8.90;6.90;;;24.20;52.70;;;;;;6264602;28;20849;-81
2023/06/10 10:39:28;;;;;;;6.20;5.87;;;24.40;51.40;;;;;;6277224;28;20237;-81
2023/06/10 10:42:34;;;;;;;7.00;5.73;;;24.40;50.40;;;;;;6275327;28;20286;-82
2023/06/10 10:45:37;;;;;;;6.40;5.73;;;24.40;50.40;;;;;;6264550;28;20303;-79
2023/06/10 10:48:41;;;;;;;5.13;4.93;;;24.40;49.70;;;;;;6272203;28;20511;-82
2023/06/10 10:51:59;;;;;;;5.93;5.47;;;24.50;49.70;;;;;;6270321;28;20287;-83
2023/06/10 10:55:13;;;;;;;6.17;5.73;;;24.80;49.70;;;;;;6256431;28;20600;-81
2023/06/10 10:58:16;;;;;;;5.40;5.20;;;25.20;48.50;;;;;;6263979;28;20234;-83
2023/06/10 11:01:19;;;;;;;5.53;5.27;;;25.60;47.80;;;;;;6266456;28;20248;-82
2023/06/10 11:04:23;;;;;;;5.33;5.13;;;25.60;47.60;;;;;;6269476;28;20241;-83
2023/06/10 11:07:27;;;;;;;5.33;5.13;;;25.80;47.50;;;;;;6264362;28;20238;-80
2023/06/10 11:10:32;;;;;;;5.70;5.40;;;26.00;47.90;;;;;;6279341;28;20241;-78
2023/06/10 11:13:38;;;;;;;5.40;5.10;;;26.00;46.60;;;;;;6285727;28;20320;-80
2023/06/10 11:16:43;;;;;;;4.97;4.77;;;26.10;46.50;;;;;;6271353;28;20244;-81
2023/06/10 11:19:47;;;;;;;4.83;4.60;;;26.20;46.80;;;;;;6267302;28;20260;-81
2023/06/10 11:23:03;;;;;;;5.70;5.37;;;26.40;46.60;;;;;;6262940;28;20247;-82
2023/06/10 11:26:20;;;;;;;5.10;5.00;;;26.50;45.70;;;;;;6261875;28;20722;-79
2023/06/10 11:29:24;;;;;;;5.27;4.97;;;26.60;45.90;;;;;;6268209;28;20315;-85
2023/06/10 11:32:32;;;;;;;6.23;5.57;;;26.70;45.50;;;;;;6277646;28;20295;-84
2023/06/10 11:35:36;;;;;;;5.37;5.07;;;27.00;45.20;;;;;;6276712;28;20329;-84
2023/06/10 11:38:41;;;;;;;6.00;5.60;;;27.20;45.60;;;;;;6280376;28;20284;-83
2023/06/10 11:41:46;;;;;;;5.63;5.20;;;27.50;45.70;;;;;;6284024;28;20236;-80
2023/06/10 11:44:50;;;;;;;6.57;5.43;;;27.90;44.50;;;;;;6279081;28;20282;-79
2023/06/10 11:47:58;;;;;;;6.20;5.80;;;27.90;44.40;;;;;;6280055;28;20694;-84
2023/06/10 11:51:01;;;;;;;6.43;5.83;;;27.80;44.90;;;;;;6266127;28;20320;-82
2023/06/10 11:54:06;;;;;;;6.37;5.83;;;28.10;44.90;;;;;;6288716;28;20895;-82
2023/06/10 11:57:10;;;;;;;6.27;5.97;;;28.30;44.90;;;;;;6276388;28;20309;-80
2023/06/10 12:00:14;;;;;;;6.63;6.17;;;28.30;44.80;;;;;;6285897;28;20242;-84
2023/06/10 12:03:19;;;;;;;6.53;6.17;;;28.10;45.50;;;;;;6288860;28;20749;-80
2023/06/10 12:06:22;;;;;;;7.30;6.73;;;28.10;46.50;;;;;;6268525;28;20226;-81
2023/06/10 12:09:28;;;;;;;6.70;6.30;;;28.10;47.10;;;;;;6272654;28;20244;-81
2023/06/10 12:12:31;;;;;;;6.90;6.40;;;28.00;47.30;;;;;;6273948;28;20281;-80
2023/06/10 12:15:34;;;;;;;6.50;6.10;;;27.70;47.00;;;;;;6265765;28;20772;-79
2023/06/10 12:18:40;;;;;;;6.30;5.83;;;27.70;46.40;;;;;;6279257;28;20233;-81
2023/06/10 12:21:46;;;;;;;6.57;6.10;;;27.70;46.40;;;;;;6268963;28;20230;-80
2023/06/10 12:25:01;;;;;;;6.30;5.77;;;27.80;45.80;;;;;;6259931;28;20305;-82
2023/06/10 12:28:05;;;;;;;6.97;6.57;;;27.90;45.10;;;;;;6272327;28;20779;-73
2023/06/10 12:31:08;;;;;;;7.87;7.37;;;27.70;45.80;;;;;;6270840;28;20233;-73
2023/06/10 12:34:11;;;;;;;8.70;7.73;;;27.70;46.10;;;;;;6271521;28;20245;-74
2023/06/10 12:37:14;;;;;;;8.97;7.80;;;27.80;46.60;;;;;;6270360;28;20314;-75
2023/06/10 12:40:19;;;;;;;8.60;7.93;;;27.70;46.90;;;;;;6271594;28;20319;-77
2023/06/10 12:43:23;;;;;;;7.57;7.07;;;27.90;46.60;;;;;;6268407;28;20764;-76
2023/06/10 12:46:36;;;;;;;8.57;7.83;;;28.00;47.20;;;;;;6281826;28;20245;-74
2023/06/10 12:49:39;;;;;;;7.90;7.50;;;28.30;46.80;;;;;;6274389;28;20234;-76
2023/06/10 12:52:43;;;;;;;9.40;8.70;;;28.50;46.70;;;;;;6263721;28;20822;-75
2023/06/10 12:55:48;;;;;;;9.30;8.70;;;28.60;47.10;;;;;;6265489;28;20273;-74
2023/06/10 12:58:51;;;;;;;9.73;9.13;;;28.60;47.20;;;;;;6276278;28;20328;-73
2023/06/10 13:01:54;;;;;;;11.30;9.03;;;28.60;47.70;;;;;;6261053;28;20325;-74
2023/06/10 13:04:58;;;;;;;9.37;8.43;;;28.60;47.90;;;;;;6273386;28;20233;-75
2023/06/10 13:08:02;;;;;;;9.80;9.10;;;28.70;48.40;;;;;;6269494;28;20241;-73
2023/06/10 13:11:07;;;;;;;9.00;8.30;;;28.80;47.80;;;;;;6265732;28;20328;-74
2023/06/10 13:14:11;;;;;;;10.02;9.10;;;28.90;47.70;;;;;;6272195;28;20229;-73
2023/06/10 13:17:14;;;;;;;9.65;8.98;;;28.90;47.90;;;;;;6261236;28;20238;-73
2023/06/10 13:20:18;;;;;;;9.77;9.03;;;29.10;47.60;;;;;;6263940;28;20241;-73
2023/06/10 13:23:21;;;;;;;11.18;9.60;;;29.10;46.80;;;;;;6265683;28;20280;-75
2023/06/10 13:26:26;;;;;;;10.20;9.30;;;29.10;46.50;;;;;;6272663;28;20709;-75
2023/06/10 13:29:30;;;;;;;9.68;8.02;;;29.10;46.90;;;;;;6274212;28;20328;-75
2023/06/10 13:32:33;;;;;;;9.52;8.85;;;29.30;47.10;;;;;;6269629;28;20392;-76
2023/06/10 13:35:36;;;;;;;10.10;9.20;;;29.30;46.50;;;;;;6266961;28;20300;-76
2023/06/10 13:38:40;;;;;;;10.05;9.00;;;29.40;46.50;;;;;;6279792;28;20356;-76
2023/06/10 13:41:44;;;;;;;9.93;9.02;;;29.50;46.90;;;;;;6274044;28;20386;-77
2023/06/10 13:44:48;;;;;;;9.68;8.77;;;29.50;46.80;;;;;;6277031;28;20253;-76
2023/06/10 13:47:51;;;;;;;9.48;8.52;;;29.70;45.90;;;;;;6281267;28;21310;-76
2023/06/10 13:50:54;;;;;;;8.23;7.43;;;29.70;46.00;;;;;;6276153;28;20743;-76
2023/06/10 13:53:57;;;;;;;8.55;7.90;;;30.00;46.00;;;;;;6270621;28;20237;-77
2023/06/10 13:57:01;;;;;;;9.25;8.43;;;30.00;45.70;;;;;;6268125;28;20374;-77
2023/06/10 14:00:06;;;;;;;9.18;8.07;;;30.00;45.60;;;;;;6273510;28;20236;-76
2023/06/10 14:03:09;;;;;;;8.00;7.45;;;30.00;45.20;;;;;;6279418;28;20239;-77
2023/06/10 14:06:18;;;;;;;8.43;7.80;;;30.00;45.60;;;;;;6265790;28;20233;-76
2023/06/10 14:09:21;;;;;;;8.15;7.60;;;29.90;45.70;;;;;;6276982;28;20314;-76
2023/06/10 14:12:25;;;;;;;8.93;7.50;;;29.70;45.30;;;;;;6272781;28;20237;-74
2023/06/10 14:15:28;;;;;;;7.82;7.07;;;29.30;45.30;;;;;;6279491;28;20385;-76
2023/06/10 14:18:34;;;;;;;7.97;7.25;;;29.10;44.80;;;;;;6265358;28;20752;-74
2023/06/10 14:21:37;;;;;;;9.40;7.07;;;29.00;44.70;;;;;;6260320;28;20237;-74
2023/06/10 14:24:40;;;;;;;7.30;7.00;;;29.10;44.00;;;;;;6257288;28;20336;-77
2023/06/10 14:27:46;;;;;;;8.27;7.50;;;29.10;44.20;;;;;;6267372;28;20230;-74
2023/06/10 14:30:49;;;;;;;8.05;7.63;;;29.10;43.80;;;;;;6278308;28;20272;-74
2023/06/10 14:33:52;;;;;;;8.52;7.85;;;29.20;44.20;;;;;;6280176;28;20233;-75
2023/06/10 14:36:56;;;;;;;7.18;6.75;;;29.20;43.70;;;;;;6277894;28;20317;-76
2023/06/10 14:39:59;;;;;;;7.80;7.18;;;29.20;43.80;;;;;;6278876;28;20359;-74
2023/06/10 14:43:09;;;;;;;7.85;7.18;;;29.20;43.80;;;;;;6264496;28;20321;-74
2023/06/10 14:46:13;;;;;;;7.60;6.85;;;29.30;43.20;;;;;;6267509;28;20250;-76
2023/06/10 14:49:16;;;;;;;8.98;7.05;;;29.30;43.30;;;;;;6271000;28;20331;-75
2023/06/10 14:52:19;;;;;;;7.40;6.90;;;29.40;42.90;;;;;;6284513;28;20261;-76
2023/06/10 14:55:22;;;;;;;10.68;7.03;;;29.40;43.20;;;;;;6277693;28;20241;-77
2023/06/10 14:58:27;;;;;;;6.65;6.22;;;29.40;42.60;;;;;;6269920;28;20248;-75
2023/06/10 15:01:30;;;;;;;9.07;7.00;;;29.40;42.80;;;;;;6275796;28;20265;-74
2023/06/10 15:04:33;;;;;;;6.38;6.07;;;29.30;42.50;;;;;;6280155;28;20254;-75
2023/06/10 15:07:36;;;;;;;7.13;6.75;;;29.40;42.50;;;;;;6277106;28;20786;-74
2023/06/10 15:10:39;;;;;;;6.95;6.45;;;29.40;42.20;;;;;;6281159;28;20870;-74
2023/06/10 15:13:44;;;;;;;7.47;7.00;;;29.50;42.30;;;;;;6273003;28;20237;-74
2023/06/10 15:16:47;;;;;;;7.88;6.72;;;29.50;42.10;;;;;;6267274;28;20237;-76
2023/06/10 15:19:51;;;;;;;7.55;6.88;;;29.50;42.30;;;;;;6275662;28;20237;-75
2023/06/10 15:22:54;;;;;;;7.68;7.00;;;29.50;41.90;;;;;;6277439;28;20672;-76
2023/06/10 15:25:57;;;;;;;7.43;6.63;;;29.50;41.90;;;;;;6268780;28;20713;-74
2023/06/10 15:29:03;;;;;;;7.03;6.53;;;29.50;42.00;;;;;;6271460;28;20230;-75
2023/06/10 15:32:07;;;;;;;7.85;7.30;;;29.50;42.00;;;;;;6265754;28;20728;-76
2023/06/10 15:35:11;;;;;;;7.85;6.25;;;29.50;40.90;;;;;;6267044;28;20236;-74
2023/06/10 15:38:15;;;;;;;7.53;6.82;;;29.60;40.80;;;;;;6265423;28;20241;-74
2023/06/10 15:41:18;;;;;;;7.45;6.75;;;29.50;40.60;;;;;;6267846;28;20240;-75
2023/06/10 15:44:22;;;;;;;8.07;6.68;;;29.50;40.30;;;;;;6281485;28;20318;-76
2023/06/10 15:47:25;;;;;;;6.45;6.15;;;29.70;39.80;;;;;;6272103;28;20319;-76
2023/06/10 15:50:28;;;;;;;10.13;7.28;;;29.80;39.70;;;;;;6271260;28;20237;-75
2023/06/10 15:53:32;;;;;;;8.13;6.43;;;30.00;39.80;;;;;;6274111;28;20245;-75
2023/06/10 15:56:35;;;;;;;7.07;6.22;;;30.00;39.30;;;;;;6262789;28;20241;-74